sensor_id;sensor_type;location;lat;lon;timestamp;pressure;altitude;pressure_sealevel;temperature;humidity
67397;BME280;57728;50.448;18.824;2023-04-29T00:00:13;97571.19;;;12.73;40.07
67397;BME280;57728;50.448;18.824;2023-04-29T00:02:15;97414.47;;;11.76;40.12
67397;BME280;57728;50.448;18.824;2023-04-29T00:04:17;97600.34;;;12.90;40.07
67397;BME280;57728;50.448;18.824;2023-04-29T00:06:18;97477.38;;;12.08;40.41
67397;BME280;57728;50.448;18.824;2023-04-29T00:08:20;97536.47;;;12.47;40.15
67397;BME280;57728;50.448;18.824;2023-04-29T00:10:21;97369.81;;;11.38;40.51
67397;BME280;57728;50.448;18.824;2023-04-29T00:12:22;97575.75;;;12.63;40.22
67397;BME280;57728;50.448;18.824;2023-04-29T00:14:25;97489.09;;;12.09;40.34
67397;BME280;57728;50.448;18.824;2023-04-29T00:16:26;97558.66;;;12.50;40.39
67397;BME280;57728;50.448;18.824;2023-04-29T00:18:27;97598.41;;;12.63;40.35
67397;BME280;57728;50.448;18.824;2023-04-29T00:20:29;97421.88;;;11.58;40.58
67397;BME280;57728;50.448;18.824;2023-04-29T00:22:30;97442.16;;;11.67;40.84
67397;BME280;57728;50.448;18.824;2023-04-29T00:24:32;97594.25;;;12.61;40.89
67397;BME280;57728;50.448;18.824;2023-04-29T00:26:34;97588.00;;;12.60;40.72
67397;BME280;57728;50.448;18.824;2023-04-29T00:28:35;97389.31;;;11.29;40.78
67397;BME280;57728;50.448;18.824;2023-04-29T00:30:36;97418.53;;;11.51;40.75
67397;BME280;57728;50.448;18.824;2023-04-29T00:32:38;97583.53;;;12.54;40.91
67397;BME280;57728;50.448;18.824;2023-04-29T00:34:40;97561.03;;;12.42;40.86
67397;BME280;57728;50.448;18.824;2023-04-29T00:36:42;97582.97;;;12.52;40.93
67397;BME280;57728;50.448;18.824;2023-04-29T00:38:44;97459.03;;;11.64;40.90
67397;BME280;57728;50.448;18.824;2023-04-29T00:40:46;97449.34;;;11.74;40.99
67397;BME280;57728;50.448;18.824;2023-04-29T00:42:47;97583.84;;;12.58;41.01
67397;BME280;57728;50.448;18.824;2023-04-29T00:44:49;97508.25;;;12.14;41.02
67397;BME280;57728;50.448;18.824;2023-04-29T00:46:50;97426.75;;;11.56;41.33
67397;BME280;57728;50.448;18.824;2023-04-29T00:48:51;97512.41;;;12.16;41.25
67397;BME280;57728;50.448;18.824;2023-04-29T00:50:53;97579.81;;;12.60;41.12
67397;BME280;57728;50.448;18.824;2023-04-29T00:52:56;97587.72;;;12.62;41.42
67397;BME280;57728;50.448;18.824;2023-04-29T00:54:58;97506.59;;;12.13;41.11
67397;BME280;57728;50.448;18.824;2023-04-29T00:57:01;97392.75;;;11.42;41.37
67397;BME280;57728;50.448;18.824;2023-04-29T00:59:04;97407.94;;;11.55;41.38
67397;BME280;57728;50.448;18.824;2023-04-29T01:01:05;97383.69;;;11.36;41.59
67397;BME280;57728;50.448;18.824;2023-04-29T01:03:08;97445.16;;;11.66;41.29
67397;BME280;57728;50.448;18.824;2023-04-29T01:05:10;97548.88;;;12.32;41.72
67397;BME280;57728;50.448;18.824;2023-04-29T01:07:16;97411.94;;;11.47;41.66
67397;BME280;57728;50.448;18.824;2023-04-29T01:15:16;97601.06;;;12.36;41.91
67397;BME280;57728;50.448;18.824;2023-04-29T01:17:17;97427.56;;;11.34;42.00
67397;BME280;57728;50.448;18.824;2023-04-29T01:19:43;97576.69;;;12.29;41.89
67397;BME280;57728;50.448;18.824;2023-04-29T01:21:48;97393.41;;;11.10;42.12
67397;BME280;57728;50.448;18.824;2023-04-29T01:23:50;97586.19;;;12.27;42.20
67397;BME280;57728;50.448;18.824;2023-04-29T01:26:01;97551.53;;;12.05;42.41
67397;BME280;57728;50.448;18.824;2023-04-29T01:38:52;97572.44;;;12.38;42.56
67397;BME280;57728;50.448;18.824;2023-04-29T01:41:22;97471.34;;;11.67;42.73
67397;BME280;57728;50.448;18.824;2023-04-29T01:43:51;97367.25;;;11.09;42.79
67397;BME280;57728;50.448;18.824;2023-04-29T01:45:58;97352.66;;;10.98;42.99
67397;BME280;57728;50.448;18.824;2023-04-29T01:48:02;97567.44;;;12.30;43.16
67397;BME280;57728;50.448;18.824;2023-04-29T01:50:06;97524.50;;;12.03;43.38
67397;BME280;57728;50.448;18.824;2023-04-29T01:52:07;97404.84;;;11.29;43.43
67397;BME280;57728;50.448;18.824;2023-04-29T01:54:11;97450.03;;;11.64;43.63
67397;BME280;57728;50.448;18.824;2023-04-29T01:56:14;97415.88;;;11.39;43.61
67397;BME280;57728;50.448;18.824;2023-04-29T01:58:36;97447.50;;;11.57;43.76
67397;BME280;57728;50.448;18.824;2023-04-29T02:01:01;97404.53;;;11.25;43.92
67397;BME280;57728;50.448;18.824;2023-04-29T02:03:05;97491.88;;;11.75;43.94
67397;BME280;57728;50.448;18.824;2023-04-29T02:05:15;97522.94;;;11.91;44.21
67397;BME280;57728;50.448;18.824;2023-04-29T02:07:24;97354.63;;;10.86;44.28
67397;BME280;57728;50.448;18.824;2023-04-29T02:09:26;97522.88;;;11.85;44.46
67397;BME280;57728;50.448;18.824;2023-04-29T02:11:34;97541.88;;;11.97;45.05
67397;BME280;57728;50.448;18.824;2023-04-29T02:13:36;97561.69;;;12.10;45.17
67397;BME280;57728;50.448;18.824;2023-04-29T02:15:38;97516.91;;;11.88;45.50
67397;BME280;57728;50.448;18.824;2023-04-29T02:17:40;97490.25;;;11.74;45.68
67397;BME280;57728;50.448;18.824;2023-04-29T02:19:42;97473.31;;;11.72;46.06
67397;BME280;57728;50.448;18.824;2023-04-29T02:21:43;97335.78;;;10.79;45.96
67397;BME280;57728;50.448;18.824;2023-04-29T02:23:45;97450.84;;;11.64;46.21
67397;BME280;57728;50.448;18.824;2023-04-29T02:25:47;97530.91;;;12.14;46.31
67397;BME280;57728;50.448;18.824;2023-04-29T02:27:49;97481.41;;;11.83;46.56
67397;BME280;57728;50.448;18.824;2023-04-29T02:29:50;97523.50;;;12.10;46.77
67397;BME280;57728;50.448;18.824;2023-04-29T02:31:52;97551.56;;;12.27;46.72
67397;BME280;57728;50.448;18.824;2023-04-29T02:33:53;97545.25;;;12.27;46.98
67397;BME280;57728;50.448;18.824;2023-04-29T02:35:55;97541.72;;;12.26;46.96
67397;BME280;57728;50.448;18.824;2023-04-29T02:37:57;97440.97;;;11.58;46.99
67397;BME280;57728;50.448;18.824;2023-04-29T02:40:00;97505.66;;;12.02;46.85
67397;BME280;57728;50.448;18.824;2023-04-29T02:42:04;97445.03;;;11.56;47.22
67397;BME280;57728;50.448;18.824;2023-04-29T02:44:06;97545.78;;;12.24;47.21
67397;BME280;57728;50.448;18.824;2023-04-29T02:46:07;97384.22;;;11.33;47.34
67397;BME280;57728;50.448;18.824;2023-04-29T02:48:09;97542.78;;;12.25;47.18
67397;BME280;57728;50.448;18.824;2023-04-29T02:50:11;97538.16;;;12.26;47.34
67397;BME280;57728;50.448;18.824;2023-04-29T02:52:12;97378.38;;;11.24;47.36
67397;BME280;57728;50.448;18.824;2023-04-29T02:54:15;97507.03;;;12.04;47.34
67397;BME280;57728;50.448;18.824;2023-04-29T02:56:17;97560.22;;;12.24;47.61
67397;BME280;57728;50.448;18.824;2023-04-29T02:58:19;97405.25;;;11.38;47.54
67397;BME280;57728;50.448;18.824;2023-04-29T03:00:20;97538.34;;;12.19;47.79
67397;BME280;57728;50.448;18.824;2023-04-29T03:02:23;97535.88;;;12.17;47.74
67397;BME280;57728;50.448;18.824;2023-04-29T03:04:28;97497.03;;;11.93;47.99
67397;BME280;57728;50.448;18.824;2023-04-29T03:06:29;97448.72;;;11.66;47.94
67397;BME280;57728;50.448;18.824;2023-04-29T03:08:31;97493.28;;;11.94;48.23
67397;BME280;57728;50.448;18.824;2023-04-29T03:10:33;97531.78;;;12.20;48.31
67397;BME280;57728;50.448;18.824;2023-04-29T03:12:34;97298.97;;;10.76;48.29
67397;BME280;57728;50.448;18.824;2023-04-29T03:14:36;97455.97;;;11.78;48.40
67397;BME280;57728;50.448;18.824;2023-04-29T03:16:38;97367.91;;;11.16;48.38
67397;BME280;57728;50.448;18.824;2023-04-29T03:18:39;97458.91;;;11.76;48.60
67397;BME280;57728;50.448;18.824;2023-04-29T03:20:42;97510.34;;;12.07;48.80
67397;BME280;57728;50.448;18.824;2023-04-29T03:22:44;97510.88;;;12.03;49.23
67397;BME280;57728;50.448;18.824;2023-04-29T03:24:45;97409.72;;;11.44;49.30
67397;BME280;57728;50.448;18.824;2023-04-29T03:26:47;97360.78;;;11.15;49.29
67397;BME280;57728;50.448;18.824;2023-04-29T03:28:49;97537.97;;;12.10;49.47
67397;BME280;57728;50.448;18.824;2023-04-29T03:30:50;97421.81;;;11.53;49.39
67397;BME280;57728;50.448;18.824;2023-04-29T03:32:52;97515.91;;;12.12;49.66
67397;BME280;57728;50.448;18.824;2023-04-29T03:34:54;97513.97;;;12.12;49.51
67397;BME280;57728;50.448;18.824;2023-04-29T03:37:15;97317.94;;;10.88;49.49
67397;BME280;57728;50.448;18.824;2023-04-29T03:39:21;97511.16;;;12.07;49.38
67397;BME280;57728;50.448;18.824;2023-04-29T03:41:22;97524.56;;;12.09;49.68
67397;BME280;57728;50.448;18.824;2023-04-29T03:43:24;97523.50;;;12.10;49.85
67397;BME280;57728;50.448;18.824;2023-04-29T03:45:26;97505.97;;;12.06;50.05
67397;BME280;57728;50.448;18.824;2023-04-29T03:47:27;97530.59;;;12.11;50.09
67397;BME280;57728;50.448;18.824;2023-04-29T03:49:28;97397.66;;;11.40;50.12
67397;BME280;57728;50.448;18.824;2023-04-29T03:51:31;97482.38;;;11.77;50.18
67397;BME280;57728;50.448;18.824;2023-04-29T03:53:41;97485.31;;;11.93;50.40
67397;BME280;57728;50.448;18.824;2023-04-29T03:55:42;97430.88;;;11.59;50.52
67397;BME280;57728;50.448;18.824;2023-04-29T03:57:45;97458.88;;;11.71;50.50
67397;BME280;57728;50.448;18.824;2023-04-29T03:59:47;97435.09;;;11.66;50.65
67397;BME280;57728;50.448;18.824;2023-04-29T04:01:51;97322.69;;;10.98;50.60
67397;BME280;57728;50.448;18.824;2023-04-29T04:03:55;97507.03;;;12.04;50.47
67397;BME280;57728;50.448;18.824;2023-04-29T04:05:56;97501.28;;;12.01;50.62
67397;BME280;57728;50.448;18.824;2023-04-29T04:07:57;97493.88;;;11.96;50.72
67397;BME280;57728;50.448;18.824;2023-04-29T04:10:19;97470.78;;;11.87;50.78
67397;BME280;57728;50.448;18.824;2023-04-29T04:12:20;97394.09;;;11.39;50.69
67397;BME280;57728;50.448;18.824;2023-04-29T04:14:22;97472.44;;;11.88;50.84
67397;BME280;57728;50.448;18.824;2023-04-29T04:16:25;97512.06;;;12.13;50.95
67397;BME280;57728;50.448;18.824;2023-04-29T04:18:26;97423.97;;;11.51;51.16
67397;BME280;57728;50.448;18.824;2023-04-29T04:20:28;97447.69;;;11.73;50.87
67397;BME280;57728;50.448;18.824;2023-04-29T04:22:30;97357.50;;;11.13;50.70
67397;BME280;57728;50.448;18.824;2023-04-29T04:24:47;97514.31;;;12.16;50.77
67397;BME280;57728;50.448;18.824;2023-04-29T04:26:48;97518.91;;;12.15;50.76
67397;BME280;57728;50.448;18.824;2023-04-29T04:28:55;97443.81;;;11.68;50.83
67397;BME280;57728;50.448;18.824;2023-04-29T04:31:12;97500.66;;;12.16;50.90
67397;BME280;57728;50.448;18.824;2023-04-29T04:33:14;97519.56;;;12.23;50.82
67397;BME280;57728;50.448;18.824;2023-04-29T04:35:18;97456.00;;;11.83;50.82
67397;BME280;57728;50.448;18.824;2023-04-29T04:37:20;97508.66;;;12.00;50.98
67397;BME280;57728;50.448;18.824;2023-04-29T04:39:26;97522.03;;;12.24;51.11
67397;BME280;57728;50.448;18.824;2023-04-29T04:41:31;97539.81;;;12.27;51.23
67397;BME280;57728;50.448;18.824;2023-04-29T04:43:33;97430.19;;;11.68;51.01
67397;BME280;57728;50.448;18.824;2023-04-29T04:45:35;97426.06;;;11.66;51.06
67397;BME280;57728;50.448;18.824;2023-04-29T04:47:39;97432.50;;;11.77;50.87
67397;BME280;57728;50.448;18.824;2023-04-29T04:49:53;97480.34;;;12.07;51.01
67397;BME280;57728;50.448;18.824;2023-04-29T04:51:54;97496.28;;;12.15;51.05
67397;BME280;57728;50.448;18.824;2023-04-29T04:53:56;97359.09;;;11.31;50.98
67397;BME280;57728;50.448;18.824;2023-04-29T04:56:02;97454.44;;;11.87;51.24
67397;BME280;57728;50.448;18.824;2023-04-29T04:58:05;97494.25;;;12.05;51.24
67397;BME280;57728;50.448;18.824;2023-04-29T05:00:08;97534.59;;;12.25;51.37
67397;BME280;57728;50.448;18.824;2023-04-29T05:02:10;97348.50;;;11.12;51.61
67397;BME280;57728;50.448;18.824;2023-04-29T05:04:11;97460.91;;;11.81;51.78
67397;BME280;57728;50.448;18.824;2023-04-29T05:06:13;97290.72;;;10.71;51.87
67397;BME280;57728;50.448;18.824;2023-04-29T05:08:18;97382.81;;;11.30;52.04
67397;BME280;57728;50.448;18.824;2023-04-29T05:10:21;97446.31;;;11.70;52.25
67397;BME280;57728;50.448;18.824;2023-04-29T05:12:28;97528.50;;;12.18;52.12
67397;BME280;57728;50.448;18.824;2023-04-29T05:14:31;97522.78;;;12.19;52.19
67397;BME280;57728;50.448;18.824;2023-04-29T05:16:32;97406.22;;;11.48;51.90
67397;BME280;57728;50.448;18.824;2023-04-29T05:18:35;97425.59;;;11.52;52.09
67397;BME280;57728;50.448;18.824;2023-04-29T05:20:36;97515.41;;;12.20;52.33
67397;BME280;57728;50.448;18.824;2023-04-29T05:22:38;97388.63;;;11.39;52.77
67397;BME280;57728;50.448;18.824;2023-04-29T05:24:40;97521.97;;;12.19;52.97
67397;BME280;57728;50.448;18.824;2023-04-29T05:26:42;97519.50;;;12.17;53.10
67397;BME280;57728;50.448;18.824;2023-04-29T05:28:44;97270.63;;;10.55;53.13
67397;BME280;57728;50.448;18.824;2023-04-29T05:30:50;97345.38;;;11.04;53.15
67397;BME280;57728;50.448;18.824;2023-04-29T05:32:52;97466.19;;;11.70;53.33
67397;BME280;57728;50.448;18.824;2023-04-29T05:34:55;97526.13;;;12.04;53.71
67397;BME280;57728;50.448;18.824;2023-04-29T05:36:57;97487.84;;;11.77;53.96
67397;BME280;57728;50.448;18.824;2023-04-29T05:38:59;97521.53;;;12.05;54.12
67397;BME280;57728;50.448;18.824;2023-04-29T05:41:00;97516.88;;;12.06;54.31
67397;BME280;57728;50.448;18.824;2023-04-29T05:43:24;97508.41;;;12.02;54.42
67397;BME280;57728;50.448;18.824;2023-04-29T05:45:26;97320.09;;;10.86;54.63
67397;BME280;57728;50.448;18.824;2023-04-29T05:47:28;97314.31;;;10.82;54.89
67397;BME280;57728;50.448;18.824;2023-04-29T05:49:30;97512.03;;;12.08;54.84
67397;BME280;57728;50.448;18.824;2023-04-29T05:51:31;97414.66;;;11.47;54.81
67397;BME280;57728;50.448;18.824;2023-04-29T05:53:33;97484.84;;;11.96;54.88
67397;BME280;57728;50.448;18.824;2023-04-29T05:55:38;97520.66;;;12.21;54.80
67397;BME280;57728;50.448;18.824;2023-04-29T05:57:40;97466.47;;;11.91;55.02
67397;BME280;57728;50.448;18.824;2023-04-29T05:59:41;97492.06;;;12.07;54.92
67397;BME280;57728;50.448;18.824;2023-04-29T06:01:44;97464.31;;;11.93;54.93
67397;BME280;57728;50.448;18.824;2023-04-29T06:03:46;97372.03;;;11.41;55.21
67397;BME280;57728;50.448;18.824;2023-04-29T06:05:59;97520.50;;;12.33;55.11
67397;BME280;57728;50.448;18.824;2023-04-29T06:08:31;97373.81;;;11.52;55.39
67397;BME280;57728;50.448;18.824;2023-04-29T06:10:37;97415.06;;;11.78;55.51
67397;BME280;57728;50.448;18.824;2023-04-29T06:12:39;97354.31;;;11.38;55.58
67397;BME280;57728;50.448;18.824;2023-04-29T06:14:41;97480.72;;;12.15;55.55
67397;BME280;57728;50.448;18.824;2023-04-29T06:16:42;97412.31;;;11.56;55.82
67397;BME280;57728;50.448;18.824;2023-04-29T06:18:44;97359.16;;;11.36;56.06
67397;BME280;57728;50.448;18.824;2023-04-29T06:20:48;97470.56;;;12.11;56.07
67397;BME280;57728;50.448;18.824;2023-04-29T06:22:49;97450.47;;;11.95;56.21
67397;BME280;57728;50.448;18.824;2023-04-29T06:24:51;97484.78;;;12.13;56.37
67397;BME280;57728;50.448;18.824;2023-04-29T06:27:12;97437.66;;;11.95;56.40
67397;BME280;57728;50.448;18.824;2023-04-29T06:29:13;97385.75;;;11.68;56.75
67397;BME280;57728;50.448;18.824;2023-04-29T06:31:15;97466.75;;;12.34;56.55
67397;BME280;57728;50.448;18.824;2023-04-29T06:33:18;97460.53;;;12.38;57.14
67397;BME280;57728;50.448;18.824;2023-04-29T06:35:19;97461.41;;;12.44;56.53
67397;BME280;57728;50.448;18.824;2023-04-29T06:37:46;97283.94;;;11.35;56.21
67397;BME280;57728;50.448;18.824;2023-04-29T06:40:07;97448.47;;;12.34;56.41
67397;BME280;57728;50.448;18.824;2023-04-29T06:42:28;97511.72;;;12.81;56.12
67397;BME280;57728;50.448;18.824;2023-04-29T06:44:55;97490.81;;;12.64;56.23
67397;BME280;57728;50.448;18.824;2023-04-29T06:47:14;97416.94;;;12.21;56.26
67397;BME280;57728;50.448;18.824;2023-04-29T06:49:28;97496.63;;;12.73;56.46
67397;BME280;57728;50.448;18.824;2023-04-29T06:51:29;97476.59;;;12.62;56.62
67397;BME280;57728;50.448;18.824;2023-04-29T06:53:33;97490.03;;;12.69;56.60
67397;BME280;57728;50.448;18.824;2023-04-29T06:55:34;97510.91;;;12.80;56.58
67397;BME280;57728;50.448;18.824;2023-04-29T06:57:37;97509.16;;;12.96;56.71
67397;BME280;57728;50.448;18.824;2023-04-29T06:59:39;97455.34;;;12.69;56.71
67397;BME280;57728;50.448;18.824;2023-04-29T07:01:40;97374.03;;;12.17;56.90
67397;BME280;57728;50.448;18.824;2023-04-29T07:03:41;97513.06;;;13.05;56.79
67397;BME280;57728;50.448;18.824;2023-04-29T07:05:44;97504.81;;;13.00;56.92
67397;BME280;57728;50.448;18.824;2023-04-29T07:07:46;97392.31;;;12.44;57.12
67397;BME280;57728;50.448;18.824;2023-04-29T07:09:47;97515.06;;;13.15;57.09
67397;BME280;57728;50.448;18.824;2023-04-29T07:11:53;97469.81;;;12.97;57.05
67397;BME280;57728;50.448;18.824;2023-04-29T07:13:54;97447.09;;;12.92;57.15
67397;BME280;57728;50.448;18.824;2023-04-29T07:15:56;97443.06;;;12.99;57.04
67397;BME280;57728;50.448;18.824;2023-04-29T07:17:58;97482.66;;;13.29;57.15
67397;BME280;57728;50.448;18.824;2023-04-29T07:20:00;97503.09;;;13.54;56.95
67397;BME280;57728;50.448;18.824;2023-04-29T07:22:02;97477.06;;;13.46;56.64
67397;BME280;57728;50.448;18.824;2023-04-29T07:24:04;97450.75;;;13.35;56.64
67397;BME280;57728;50.448;18.824;2023-04-29T07:26:10;97495.78;;;13.65;56.22
67397;BME280;57728;50.448;18.824;2023-04-29T07:28:13;97438.13;;;13.34;56.67
67397;BME280;57728;50.448;18.824;2023-04-29T07:30:15;97490.94;;;13.82;56.10
67397;BME280;57728;50.448;18.824;2023-04-29T07:32:16;97449.72;;;13.51;56.19
67397;BME280;57728;50.448;18.824;2023-04-29T07:34:18;97499.50;;;13.96;55.69
67397;BME280;57728;50.448;18.824;2023-04-29T07:36:20;97443.53;;;13.66;55.85
67397;BME280;57728;50.448;18.824;2023-04-29T07:38:21;97471.06;;;14.02;55.58
67397;BME280;57728;50.448;18.824;2023-04-29T07:40:23;97473.28;;;14.10;55.15
67397;BME280;57728;50.448;18.824;2023-04-29T07:42:25;97468.97;;;14.25;54.71
67397;BME280;57728;50.448;18.824;2023-04-29T07:44:26;97340.94;;;13.53;54.48
67397;BME280;57728;50.448;18.824;2023-04-29T07:46:27;97360.97;;;13.80;54.21
67397;BME280;57728;50.448;18.824;2023-04-29T07:48:29;97461.69;;;14.56;53.85
67397;BME280;57728;50.448;18.824;2023-04-29T07:50:33;97502.59;;;14.94;54.22
67397;BME280;57728;50.448;18.824;2023-04-29T07:52:36;97486.69;;;15.06;53.68
67397;BME280;57728;50.448;18.824;2023-04-29T07:54:38;97495.75;;;15.22;53.32
67397;BME280;57728;50.448;18.824;2023-04-29T07:56:39;97496.59;;;15.23;52.75
67397;BME280;57728;50.448;18.824;2023-04-29T07:58:41;97352.91;;;14.41;52.68
67397;BME280;57728;50.448;18.824;2023-04-29T08:00:44;97434.06;;;15.04;52.87
67397;BME280;57728;50.448;18.824;2023-04-29T08:02:51;97437.38;;;15.11;52.69
67397;BME280;57728;50.448;18.824;2023-04-29T08:04:52;97466.38;;;15.43;52.13
67397;BME280;57728;50.448;18.824;2023-04-29T08:06:56;97510.81;;;15.81;51.80
67397;BME280;57728;50.448;18.824;2023-04-29T08:08:57;97502.00;;;15.95;51.47
67397;BME280;57728;50.448;18.824;2023-04-29T08:10:59;97511.00;;;16.06;51.51
67397;BME280;57728;50.448;18.824;2023-04-29T08:13:00;97509.13;;;16.06;50.62
67397;BME280;57728;50.448;18.824;2023-04-29T08:15:03;97491.56;;;15.97;50.74
67397;BME280;57728;50.448;18.824;2023-04-29T08:17:06;97505.19;;;16.28;50.77
67397;BME280;57728;50.448;18.824;2023-04-29T08:19:08;97507.66;;;16.29;49.57
67397;BME280;57728;50.448;18.824;2023-04-29T08:21:10;97499.41;;;16.24;49.69
67397;BME280;57728;50.448;18.824;2023-04-29T08:23:12;97509.81;;;16.32;49.99
67397;BME280;57728;50.448;18.824;2023-04-29T08:25:14;97462.97;;;16.03;49.43
67397;BME280;57728;50.448;18.824;2023-04-29T08:27:15;97510.09;;;16.36;49.69
67397;BME280;57728;50.448;18.824;2023-04-29T08:29:17;97505.41;;;16.37;49.38
67397;BME280;57728;50.448;18.824;2023-04-29T08:31:20;97475.53;;;16.25;49.02
67397;BME280;57728;50.448;18.824;2023-04-29T08:33:22;97495.56;;;16.30;48.85
67397;BME280;57728;50.448;18.824;2023-04-29T08:35:23;97505.72;;;16.30;49.39
67397;BME280;57728;50.448;18.824;2023-04-29T08:37:25;97496.38;;;16.26;49.67
67397;BME280;57728;50.448;18.824;2023-04-29T08:39:28;97505.63;;;16.45;50.03
67397;BME280;57728;50.448;18.824;2023-04-29T08:41:32;97501.63;;;16.82;49.59
67397;BME280;57728;50.448;18.824;2023-04-29T08:43:35;97494.91;;;16.99;49.04
67397;BME280;57728;50.448;18.824;2023-04-29T08:45:38;97468.31;;;16.89;48.45
67397;BME280;57728;50.448;18.824;2023-04-29T08:47:40;97502.59;;;17.02;48.34
67397;BME280;57728;50.448;18.824;2023-04-29T08:49:44;97510.03;;;17.01;48.29
67397;BME280;57728;50.448;18.824;2023-04-29T08:51:48;97502.38;;;16.93;48.47
67397;BME280;57728;50.448;18.824;2023-04-29T08:53:51;97470.59;;;16.77;48.79
67397;BME280;57728;50.448;18.824;2023-04-29T08:55:54;97475.25;;;16.76;48.80
67397;BME280;57728;50.448;18.824;2023-04-29T08:58:02;97498.88;;;16.82;48.80
67397;BME280;57728;50.448;18.824;2023-04-29T09:00:05;97443.09;;;16.32;49.17
67397;BME280;57728;50.448;18.824;2023-04-29T09:02:14;97463.91;;;16.43;49.50
67397;BME280;57728;50.448;18.824;2023-04-29T09:06:48;97491.78;;;16.71;49.53
67397;BME280;57728;50.448;18.824;2023-04-29T09:08:50;97481.91;;;16.65;49.06
67397;BME280;57728;50.448;18.824;2023-04-29T09:10:51;97501.66;;;16.72;49.37
67397;BME280;57728;50.448;18.824;2023-04-29T09:12:57;97499.47;;;16.74;49.36
67397;BME280;57728;50.448;18.824;2023-04-29T09:14:59;97495.63;;;16.70;49.43
67397;BME280;57728;50.448;18.824;2023-04-29T09:17:00;97471.78;;;16.60;49.62
67397;BME280;57728;50.448;18.824;2023-04-29T09:19:02;97369.09;;;16.06;49.21
67397;BME280;57728;50.448;18.824;2023-04-29T09:21:16;97424.78;;;16.62;49.72
67397;BME280;57728;50.448;18.824;2023-04-29T09:23:17;97503.03;;;17.19;49.26
67397;BME280;57728;50.448;18.824;2023-04-29T09:25:19;97449.50;;;17.07;49.27
67397;BME280;57728;50.448;18.824;2023-04-29T09:27:28;97484.94;;;17.43;48.96
67397;BME280;57728;50.448;18.824;2023-04-29T09:29:29;97502.19;;;17.83;48.45
67397;BME280;57728;50.448;18.824;2023-04-29T09:31:32;97496.00;;;17.96;48.15
67397;BME280;57728;50.448;18.824;2023-04-29T09:33:52;97363.84;;;17.18;47.62
67397;BME280;57728;50.448;18.824;2023-04-29T09:35:54;97496.81;;;17.97;47.89
67397;BME280;57728;50.448;18.824;2023-04-29T09:38:13;97469.91;;;17.88;47.86
67397;BME280;57728;50.448;18.824;2023-04-29T09:40:30;97441.00;;;17.91;48.49
67397;BME280;57728;50.448;18.824;2023-04-29T09:42:43;97430.44;;;18.23;46.86
67397;BME280;57728;50.448;18.824;2023-04-29T09:44:44;97518.53;;;18.71;46.83
67397;BME280;57728;50.448;18.824;2023-04-29T09:47:15;97501.00;;;18.62;46.70
67397;BME280;57728;50.448;18.824;2023-04-29T09:49:28;97499.88;;;18.44;46.44
67397;BME280;57728;50.448;18.824;2023-04-29T09:51:31;97447.59;;;17.90;46.73
67397;BME280;57728;50.448;18.824;2023-04-29T09:53:33;97502.25;;;18.07;47.37
67397;BME280;57728;50.448;18.824;2023-04-29T09:57:54;97491.13;;;17.59;47.68
67397;BME280;57728;50.448;18.824;2023-04-29T09:59:56;97435.97;;;17.10;47.68
67397;BME280;57728;50.448;18.824;2023-04-29T10:01:58;97517.94;;;17.48;47.96
67397;BME280;57728;50.448;18.824;2023-04-29T10:03:59;97484.84;;;17.24;48.04
67397;BME280;57728;50.448;18.824;2023-04-29T10:06:03;97449.44;;;17.12;48.32
67397;BME280;57728;50.448;18.824;2023-04-29T10:08:06;97496.06;;;17.27;48.33
67397;BME280;57728;50.448;18.824;2023-04-29T10:10:09;97487.38;;;17.15;48.36
67397;BME280;57728;50.448;18.824;2023-04-29T10:12:15;97509.22;;;17.01;48.92
67397;BME280;57728;50.448;18.824;2023-04-29T10:14:20;97367.50;;;15.95;49.24
67397;BME280;57728;50.448;18.824;2023-04-29T10:16:31;97365.94;;;15.68;49.77
67397;BME280;57728;50.448;18.824;2023-04-29T10:18:36;97493.63;;;16.31;50.65
67397;BME280;57728;50.448;18.824;2023-04-29T10:20:46;97518.28;;;16.41;50.43
67397;BME280;57728;50.448;18.824;2023-04-29T10:22:51;97376.97;;;15.42;50.79
67397;BME280;57728;50.448;18.824;2023-04-29T10:25:00;97454.00;;;15.72;51.07
67397;BME280;57728;50.448;18.824;2023-04-29T10:27:06;97520.38;;;16.05;51.50
67397;BME280;57728;50.448;18.824;2023-04-29T10:29:14;97468.56;;;15.57;51.80
67397;BME280;57728;50.448;18.824;2023-04-29T10:31:18;97470.22;;;15.53;52.15
67397;BME280;57728;50.448;18.824;2023-04-29T10:33:21;97367.75;;;14.71;52.51
67397;BME280;57728;50.448;18.824;2023-04-29T10:35:23;97488.34;;;15.43;52.90
67397;BME280;57728;50.448;18.824;2023-04-29T10:37:26;97453.25;;;15.25;52.75
67397;BME280;57728;50.448;18.824;2023-04-29T10:42:04;97543.75;;;15.61;53.42
67397;BME280;57728;50.448;18.824;2023-04-29T10:44:22;97441.19;;;15.10;53.63
67397;BME280;57728;50.448;18.824;2023-04-29T10:46:25;97364.75;;;14.63;53.56
67397;BME280;57728;50.448;18.824;2023-04-29T10:48:26;97488.88;;;15.35;54.11
67397;BME280;57728;50.448;18.824;2023-04-29T10:50:29;97433.78;;;15.01;53.91
67397;BME280;57728;50.448;18.824;2023-04-29T10:52:50;97471.88;;;15.12;54.17
67397;BME280;57728;50.448;18.824;2023-04-29T10:55:03;97450.22;;;15.11;54.29
67397;BME280;57728;50.448;18.824;2023-04-29T10:57:19;97352.38;;;14.55;54.23
67397;BME280;57728;50.448;18.824;2023-04-29T10:59:43;97503.13;;;15.58;54.40
67397;BME280;57728;50.448;18.824;2023-04-29T11:01:50;97437.06;;;15.23;54.41
67397;BME280;57728;50.448;18.824;2023-04-29T11:03:55;97282.78;;;14.25;54.30
67397;BME280;57728;50.448;18.824;2023-04-29T11:06:08;97412.13;;;15.09;54.53
67397;BME280;57728;50.448;18.824;2023-04-29T11:08:20;97443.66;;;15.27;54.46
67397;BME280;57728;50.448;18.824;2023-04-29T11:10:35;97504.75;;;15.69;54.68
67397;BME280;57728;50.448;18.824;2023-04-29T11:12:37;97504.22;;;15.67;54.74
67397;BME280;57728;50.448;18.824;2023-04-29T11:14:49;97478.47;;;15.47;54.78